Pagina principală
METAR-TAF:

METAR-TAF

Aeroporturi :

Talara, Peru

Latitudine: 04-34S, longitudine: 081-15W, elevație: 85 m

Observații meteo curente

Raportul a fost făcut în urmă cu 6 ore și 0 de minute, la 03:00 UTC
Temperatură 20°C
Umiditate 88%
Presiune 1015 hPa
Vizibilitate de 10 km sau mai mult
nu există nori sub 1.500 m și nici cumulonimbus

METAR: SPYL 140300Z /////KT CAVOK 20/18 Q1015 RMK BIRD HAZARD RWY 17/35 PP000

Ora: 04:00 (09:00 UTC)

Prognoză

Raportul a fost făcut în urmă cu 10 ore și 0 de minute, la 23:00 UTC
Prognoză valabilă de la 14 ora 00 UTC la 14 ora 24 UTC
Vânt 14 kt de la Sud-vest
Vizibilitate de 10 km sau mai mult
nu există nori sub 1.500 m și nici cumulonimbus
Temporar
de la 14 ora 01 UTC la 14 ora 05 UTC
Nori fragmentați la o înălțime de 7000 picior
Devenind
de la 14 ora 05 UTC la 14 ora 07 UTC
Vânt 8 kt de la Sud/Sud-est

TAF: SPYL 132300Z 1400/1424 22014KT CAVOK TX28/1419Z TN16/1411Z TEMPO 1401/1405 BKN070 BECMG 1405/1407 16008KT

Observații și prognoze meteo pentru peste 4.000 de aeroporturi (rapoarte METAR și TAF).

Stațiile disponibile sunt reprezentate pe hartă prin puncte galbene și roșii.

Țineți indicatorul mouse-ului pe punctul dorit pentru a vedea denumirea stației.

Apoi, faceți clic pentru a vedea observațiile și prognozele meteorologice.

Pentru a schimba harta: Pentru mărire, faceți clic pe butoanele verzi cu cruce neagră; pentru micșorare, pe butonul verde cu o liniuță; pentru hărți învecinate, pe săgețile verzi.


METAR-TAF: